< Cyclone 198904 1989 Season Cyclone 198906 >
Cyclone 198905 (LEON)
General InformationTrack Information on Google MapsDetailed Wind InformationList of All Images || ResourceGoogle EarthGE AnimationAtom FeedGeoJSON
Detalied Best Track (Time Zone = UTC)
Year Month Day Hour Lat. Long. Pressure (hPa) Wind (kt) Class Image Chart
1989 2 13 06 -11.9 102.0 1008 0 0 Image --
1989 2 13 12 -12.1 101.1 1006 0 0 Image --
1989 2 13 18 -12.3 100.2 1006 0 0 Image --
1989 2 14 00 -12.3 99.5 1006 0 0 Image --
1989 2 14 06 -11.9 99.7 1006 0 0 Image --
1989 2 14 12 -11.9 100.2 1006 0 0 Image --
1989 2 14 18 -12.1 100.8 1006 0 0 Image --
1989 2 15 00 -12.5 101.0 1006 0 0 Image --
1989 2 15 06 -12.6 100.8 1006 0 0 Image --
1989 2 15 12 -12.7 100.6 1006 0 0 Image --
1989 2 15 18 -12.7 100.3 1006 0 0 Image --
1989 2 16 00 -12.7 100.1 1006 0 0 Image --
1989 2 16 06 -12.8 99.6 1004 0 0 Image --
1989 2 16 12 -12.9 99.1 1004 0 0 Image --
1989 2 16 18 -12.9 98.5 1004 0 0 Image --
1989 2 17 00 -12.9 98.0 1004 0 0 Image --
1989 2 17 06 -12.9 97.5 1002 21 2 Image --
1989 2 17 12 -12.9 97.1 1000 25 2 Image --
1989 2 17 18 -12.9 96.4 999 27 2 Image --
1989 2 18 00 -12.9 95.6 997 31 2 Image --
1989 2 18 06 -12.9 95.0 995 35 3 Image --
1989 2 18 12 -12.8 93.8 993 37 3 Image --
1989 2 18 18 -12.7 92.7 992 27 2 Image --
1989 2 19 00 -12.6 91.5 990 41 3 Image --
1989 2 19 06 -12.6 90.4 989 43 3 Image --
1989 2 19 12 -12.7 89.0 988 43 3 Image --
< Cyclone 198904 1989 Season Cyclone 198906 >

Help